Terminal Aerodrome Forecast
Issued by NWS North Platte, NE

Home | Current Version | Previous Version | Text Only | Print | Product List | Glossary On
Versions: 1 2 3 4 5 6 7 8 9 10 11 12 13
000
FTUS43 KLBF 220520
TAFLBF
TAF
KLBF 220520Z 2206/2306 15014KT P6SM SKC WS015/19055KT
     FM221200 15010KT P6SM SKC
     FM221500 19011KT P6SM SKC
     FM222000 18014G23KT P6SM FEW100 SCT250
     FM230000 15013KT P6SM SCT100 BKN200 PROB30 2301/2306 6SM -TSRA
      BKN050 BKN100CB=

USA.gov is the U.S. government's official web portal to all federal, state and local government web resources and services.